首页
METAR-TAF:

METAR-TAF

机场 :

庫內奧, 意大利

纬度: 44-32-47N, 经度: 007-37-20E, 海拔: 386米

当前天气观测

该预报发布于59分钟前的15:50 UTC
风速8节,风向东南
温度 17°C
湿度 94%
气压 997 hPa
能见度10公里或以上
少量云层高于2000英尺
多云层高于5000英尺

METAR: LIMZ 041550Z 13008KT 9999 FEW020 BKN050 17/16 Q0997

时间: 18:49 (16:49 UTC)

预报

该预报发布于5小时和49分钟前的11:00 UTC
预报有效从04日的 12点(UTC)到 05日的 12点(UTC)
风速4节,风向多变
能见度10公里或以上
多云层高于4000英尺
短暂存在
从 04日的 12点(UTC)到 04日的 16点(UTC)

TAF: LIMZ 041100Z 0412/0512 VRB04KT 9999 BKN040 TEMPO 0412/0416 RA

超过4000个机场的气象观测和天气预报(METAR&TAF报告)。

可查询的气象台以黄色和红色小点在地图上表示。

将鼠标移到小点上方,可查看气象台名称。

然后点击查看天气观测和预报。

如需切换地图:点击带黑十字的绿色按钮放大地图;点击带横线的绿色按钮缩小地图;或者点击绿色箭头查看邻近地区的地图。


METAR-TAF: